createdAt,value
2022-08-04T00:00:08.844Z,28.55
2022-08-04T00:01:45.590Z,28.54
2022-08-04T00:03:24.087Z,28.53
2022-08-04T00:05:03.292Z,28.53
2022-08-04T00:06:48.933Z,28.58
2022-08-04T00:08:30.337Z,28.59
2022-08-04T00:10:04.393Z,28.58
2022-08-04T00:11:39.163Z,28.57
2022-08-04T00:13:12.081Z,28.56
2022-08-04T00:14:48.372Z,28.53
2022-08-04T00:16:22.667Z,28.51
2022-08-04T00:17:59.754Z,28.48
2022-08-04T00:19:35.914Z,28.48
2022-08-04T00:21:13.502Z,28.47
2022-08-04T00:22:48.404Z,28.46
2022-08-04T00:24:22.125Z,28.43
2022-08-04T00:25:56.153Z,28.40
2022-08-04T00:27:29.010Z,28.41
2022-08-04T00:29:01.318Z,28.39
2022-08-04T00:30:33.110Z,28.38
2022-08-04T00:32:07.129Z,28.37
2022-08-04T00:33:38.833Z,28.35
2022-08-04T00:35:14.373Z,28.34
2022-08-04T00:36:47.493Z,28.32
2022-08-04T00:38:19.840Z,28.33
2022-08-04T00:39:52.204Z,28.32
2022-08-04T00:41:31.105Z,28.31
2022-08-04T00:43:15.242Z,28.30
2022-08-04T00:45:00.020Z,28.29
2022-08-04T00:47:00.574Z,28.27
2022-08-04T00:48:51.668Z,28.26
2022-08-04T00:50:31.903Z,28.23
2022-08-04T00:52:31.657Z,28.22
2022-08-04T00:54:13.029Z,28.21
2022-08-04T00:55:59.555Z,28.17
2022-08-04T00:57:47.513Z,28.14
2022-08-04T00:59:34.857Z,28.13
2022-08-04T01:01:14.268Z,28.12
2022-08-04T01:03:05.626Z,28.10
2022-08-04T01:04:49.486Z,28.08
2022-08-04T01:06:36.785Z,28.08
2022-08-04T01:08:29.743Z,28.05
2022-08-04T01:10:05.304Z,28.04
2022-08-04T01:11:59.159Z,28.00
2022-08-04T01:13:54.429Z,27.99
2022-08-04T01:15:32.953Z,27.97
2022-08-04T01:17:26.815Z,27.96
2022-08-04T01:19:00.745Z,27.95
2022-08-04T01:20:35.190Z,27.93
2022-08-04T01:22:40.506Z,27.90
2022-08-04T01:24:25.979Z,27.86
2022-08-04T01:26:43.840Z,27.84
2022-08-04T01:28:29.997Z,27.77
2022-08-04T01:30:05.082Z,27.71
2022-08-04T01:31:49.088Z,27.62
2022-08-04T01:33:23.359Z,27.53
2022-08-04T01:35:07.649Z,27.47
2022-08-04T01:36:45.159Z,27.38
2022-08-04T01:38:26.331Z,27.32
2022-08-04T01:40:02.248Z,27.28
2022-08-04T01:41:34.097Z,27.24
2022-08-04T01:43:08.230Z,27.23
2022-08-04T01:44:41.627Z,27.23
2022-08-04T01:46:16.728Z,27.22
2022-08-04T01:47:50.782Z,27.23
2022-08-04T01:49:28.088Z,27.24
2022-08-04T01:51:04.398Z,27.26
2022-08-04T01:52:38.465Z,27.27
2022-08-04T01:54:11.646Z,27.27
2022-08-04T01:55:55.339Z,27.25
2022-08-04T01:57:45.967Z,27.25
2022-08-04T01:59:19.214Z,27.25
2022-08-04T02:00:57.219Z,27.23
2022-08-04T02:02:31.011Z,27.23
2022-08-04T02:04:18.921Z,27.20
2022-08-04T02:06:04.224Z,27.19
2022-08-04T02:08:01.713Z,27.17
2022-08-04T02:09:53.641Z,27.16
2022-08-04T02:11:26.972Z,27.14
2022-08-04T02:13:10.867Z,27.15
2022-08-04T02:14:53.283Z,27.11
2022-08-04T02:16:32.198Z,27.04
2022-08-04T02:18:14.109Z,27.01
2022-08-04T02:20:06.986Z,27.00
2022-08-04T02:21:42.733Z,26.93
2022-08-04T02:23:19.750Z,26.83
2022-08-04T02:24:58.242Z,26.77
2022-08-04T02:26:33.565Z,26.72
2022-08-04T02:28:22.164Z,26.65
2022-08-04T02:29:59.097Z,26.60
2022-08-04T02:31:34.481Z,26.57
2022-08-04T02:33:11.370Z,26.56
2022-08-04T02:34:48.996Z,26.55
2022-08-04T02:36:23.802Z,26.52
2022-08-04T02:38:04.701Z,26.47
2022-08-04T02:39:48.390Z,26.44
2022-08-04T02:41:24.593Z,26.44
2022-08-04T02:42:58.840Z,26.46
2022-08-04T02:44:32.217Z,26.51
2022-08-04T02:46:17.745Z,26.55
2022-08-04T02:48:29.062Z,26.57
2022-08-04T02:49:47.412Z,26.54
2022-08-04T02:51:23.016Z,26.55
2022-08-04T02:52:58.326Z,26.55
2022-08-04T02:54:35.426Z,26.51
2022-08-04T02:56:08.814Z,26.48
2022-08-04T02:57:41.798Z,26.47
2022-08-04T02:59:14.414Z,26.45
2022-08-04T03:00:48.254Z,26.43
2022-08-04T03:02:30.937Z,26.42
2022-08-04T03:04:16.263Z,26.42
2022-08-04T03:06:23.365Z,26.43
2022-08-04T03:08:21.333Z,26.42
2022-08-04T03:10:36.423Z,26.36
2022-08-04T03:12:39.499Z,26.33
2022-08-04T03:14:29.128Z,26.34
2022-08-04T03:16:16.046Z,26.31
2022-08-04T03:18:22.099Z,26.33
2022-08-04T03:20:25.224Z,26.33
2022-08-04T03:22:35.133Z,26.29
2022-08-04T03:24:29.961Z,26.30
2022-08-04T03:26:43.301Z,26.28
2022-08-04T03:28:42.843Z,26.21
2022-08-04T03:30:15.989Z,26.14
2022-08-04T03:32:15.583Z,26.13
2022-08-04T03:33:56.484Z,26.08
2022-08-04T03:36:08.799Z,26.06
2022-08-04T03:38:17.524Z,25.92
2022-08-04T03:40:14.834Z,25.85
2022-08-04T03:42:11.162Z,25.86
2022-08-04T03:44:04.913Z,25.78
2022-08-04T03:46:09.271Z,25.80
2022-08-04T03:48:09.496Z,25.83
2022-08-04T03:50:13.026Z,25.86
2022-08-04T03:52:20.686Z,25.84
2022-08-04T03:54:30.374Z,25.82
2022-08-04T03:56:44.225Z,25.80
2022-08-04T03:58:48.058Z,25.77
2022-08-04T04:00:20.868Z,25.75
2022-08-04T04:02:28.322Z,25.75
2022-08-04T04:04:38.229Z,25.71
2022-08-04T04:06:53.881Z,25.66
2022-08-04T04:09:05.204Z,25.66
2022-08-04T04:10:58.352Z,25.63
2022-08-04T04:12:51.024Z,25.61
2022-08-04T04:14:50.018Z,25.62
2022-08-04T04:16:34.854Z,25.66
2022-08-04T04:18:21.119Z,25.63
2022-08-04T04:20:24.024Z,25.62
2022-08-04T04:22:17.004Z,25.60
2022-08-04T04:24:02.789Z,25.59
2022-08-04T04:25:43.332Z,25.59
2022-08-04T04:27:29.985Z,25.57
2022-08-04T04:29:21.444Z,25.58
2022-08-04T04:31:03.218Z,25.57
2022-08-04T04:33:09.897Z,25.58
2022-08-04T04:34:52.142Z,25.55
2022-08-04T04:36:34.666Z,25.55
2022-08-04T04:38:34.565Z,25.53
2022-08-04T04:40:20.073Z,25.52
2022-08-04T04:42:21.810Z,25.49
2022-08-04T04:44:30.852Z,25.48
2022-08-04T04:46:15.319Z,25.46
2022-08-04T04:48:07.989Z,25.47
2022-08-04T04:49:49.403Z,25.46
2022-08-04T04:51:28.915Z,25.45
2022-08-04T04:53:10.916Z,25.47
2022-08-04T04:54:53.085Z,25.47
2022-08-04T04:56:29.202Z,25.48
2022-08-04T04:58:01.533Z,25.50
2022-08-04T04:59:35.528Z,25.51
2022-08-04T05:01:26.494Z,25.52
2022-08-04T05:03:30.051Z,25.52
2022-08-04T05:05:13.325Z,25.52
2022-08-04T05:07:02.940Z,25.50
2022-08-04T05:08:46.736Z,25.46
2022-08-04T05:10:34.299Z,25.46
2022-08-04T05:12:44.961Z,25.44
2022-08-04T05:14:34.917Z,25.42
2022-08-04T05:16:18.420Z,25.43
2022-08-04T05:17:54.006Z,25.44
2022-08-04T05:19:32.641Z,25.46
2022-08-04T05:21:19.958Z,25.45
2022-08-04T05:22:54.952Z,25.44
2022-08-04T05:24:28.897Z,25.44
2022-08-04T05:26:11.320Z,25.42
2022-08-04T05:27:50.450Z,25.42
2022-08-04T05:29:30.943Z,25.40
2022-08-04T05:31:10.618Z,25.41
2022-08-04T05:32:50.089Z,25.40
2022-08-04T05:34:24.192Z,25.41
2022-08-04T05:36:18.956Z,25.41
2022-08-04T05:38:01.071Z,25.41
2022-08-04T05:39:38.901Z,25.39
2022-08-04T05:41:12.739Z,25.38
2022-08-04T05:42:44.911Z,25.39
2022-08-04T05:44:18.730Z,25.39
2022-08-04T05:45:52.473Z,25.41
2022-08-04T05:47:25.032Z,25.41
2022-08-04T05:48:58.103Z,25.41
2022-08-04T05:50:33.502Z,25.39
2022-08-04T05:52:07.173Z,25.38
2022-08-04T05:53:42.928Z,25.36
2022-08-04T05:55:17.031Z,25.35
2022-08-04T05:57:09.745Z,25.38
2022-08-04T05:58:44.587Z,25.43
2022-08-04T06:00:38.963Z,25.49
2022-08-04T06:02:10.743Z,25.56
2022-08-04T06:03:44.005Z,25.60
2022-08-04T06:05:18.367Z,25.61
2022-08-04T06:06:50.688Z,25.61
2022-08-04T06:08:22.825Z,25.62
2022-08-04T06:09:55.070Z,25.68
2022-08-04T06:11:29.262Z,25.69
2022-08-04T06:13:06.630Z,25.74
2022-08-04T06:14:41.838Z,25.81
2022-08-04T06:16:29.306Z,25.88
2022-08-04T06:19:40.149Z,25.95
2022-08-04T06:20:17.903Z,26.04
2022-08-04T06:21:53.462Z,26.10
2022-08-04T06:23:30.079Z,26.18
2022-08-04T06:25:05.962Z,26.24
2022-08-04T06:26:42.579Z,26.32
2022-08-04T06:28:16.516Z,26.40
2022-08-04T06:29:51.221Z,26.47
2022-08-04T06:32:28.436Z,26.55
2022-08-04T06:33:54.657Z,26.63
2022-08-04T06:35:27.825Z,26.70
2022-08-04T06:37:01.531Z,26.76
2022-08-04T06:38:36.220Z,26.84
2022-08-04T06:40:31.373Z,26.92
2022-08-04T06:42:22.022Z,27.03
2022-08-04T06:44:00.486Z,27.14
2022-08-04T06:45:34.852Z,27.22
2022-08-04T06:47:07.656Z,27.30
2022-08-04T06:48:41.805Z,27.39
2022-08-04T06:51:28.276Z,27.48
2022-08-04T06:52:07.829Z,27.58
2022-08-04T06:53:39.572Z,27.63
2022-08-04T06:55:11.505Z,27.66
2022-08-04T06:56:45.382Z,27.68
2022-08-04T06:58:19.325Z,27.75
2022-08-04T06:59:56.017Z,27.84
2022-08-04T07:01:29.214Z,27.92
2022-08-04T07:03:02.307Z,28.00
2022-08-04T07:04:34.714Z,28.07
2022-08-04T07:06:14.764Z,28.15
2022-08-04T07:07:57.627Z,28.24
2022-08-04T07:09:31.514Z,28.28
2022-08-04T07:11:03.954Z,28.35
2022-08-04T07:12:36.610Z,28.43
2022-08-04T07:14:09.391Z,28.50
2022-08-04T07:15:44.604Z,28.57
2022-08-04T07:17:17.391Z,28.67
2022-08-04T07:18:49.265Z,28.72
2022-08-04T07:20:34.251Z,28.75
2022-08-04T07:22:17.803Z,28.78
2022-08-04T07:23:58.525Z,28.74
2022-08-04T07:25:58.720Z,28.75
2022-08-04T07:27:47.541Z,28.77
2022-08-04T07:29:15.784Z,28.86
2022-08-04T07:30:49.065Z,28.94
2022-08-04T07:32:21.626Z,28.99
2022-08-04T07:34:16.434Z,29.05
2022-08-04T07:36:05.758Z,29.16
2022-08-04T07:37:40.123Z,29.26
2022-08-04T07:39:27.600Z,29.34
2022-08-04T07:41:03.800Z,29.47
2022-08-04T07:42:35.884Z,29.56
2022-08-04T07:44:08.554Z,29.63
2022-08-04T07:45:40.397Z,29.69
2022-08-04T07:47:12.594Z,29.73
2022-08-04T07:48:44.448Z,29.75
2022-08-04T07:50:17.695Z,29.81
2022-08-04T07:51:50.266Z,29.87
2022-08-04T07:53:53.013Z,29.93
2022-08-04T07:55:18.347Z,30.01
2022-08-04T07:56:51.729Z,30.10
2022-08-04T07:58:23.644Z,30.20
2022-08-04T07:59:55.525Z,30.27
2022-08-04T08:01:27.733Z,30.34
2022-08-04T08:03:00.930Z,30.43
2022-08-04T08:04:33.119Z,30.52
2022-08-04T08:06:18.130Z,30.58
2022-08-04T08:07:58.208Z,30.61
2022-08-04T08:09:33.376Z,30.65
2022-08-04T08:11:07.068Z,30.72
2022-08-04T08:12:51.613Z,30.83
2022-08-04T08:14:24.979Z,30.94
2022-08-04T08:15:57.788Z,31.04
2022-08-04T08:17:29.605Z,31.11
2022-08-04T08:19:01.810Z,31.15
2022-08-04T08:20:33.826Z,31.24
2022-08-04T08:22:05.783Z,31.33
2022-08-04T08:23:38.483Z,31.42
2022-08-04T08:25:12.128Z,31.53
2022-08-04T08:26:45.397Z,31.55
2022-08-04T08:28:17.586Z,31.60
2022-08-04T08:29:49.645Z,31.68
2022-08-04T08:31:21.502Z,31.78
2022-08-04T08:33:16.204Z,31.85
2022-08-04T08:34:48.409Z,31.89
2022-08-04T08:36:26.109Z,31.92
2022-08-04T08:38:00.752Z,31.93
2022-08-04T08:39:39.517Z,31.99
2022-08-04T08:41:34.146Z,32.09
2022-08-04T08:44:06.348Z,32.20
2022-08-04T08:45:51.211Z,32.28
2022-08-04T08:48:04.808Z,32.42
2022-08-04T08:50:00.632Z,32.50
2022-08-04T08:52:04.123Z,32.54
2022-08-04T08:53:50.282Z,32.57
2022-08-04T08:55:32.794Z,32.58
2022-08-04T08:57:20.497Z,32.70
2022-08-04T08:59:15.292Z,32.78
2022-08-04T09:00:54.062Z,32.81
2022-08-04T09:03:04.587Z,32.74
2022-08-04T09:05:08.688Z,32.73
2022-08-04T09:06:50.752Z,32.56
2022-08-04T09:08:49.665Z,32.46
2022-08-04T09:10:27.885Z,32.41
2022-08-04T09:12:12.954Z,32.39
2022-08-04T09:13:50.147Z,32.38
2022-08-04T09:15:33.140Z,32.35
2022-08-04T09:17:10.957Z,32.26
2022-08-04T09:18:47.935Z,32.21
2022-08-04T09:20:28.982Z,32.18
2022-08-04T09:22:05.898Z,32.14
2022-08-04T09:23:49.095Z,32.18
2022-08-04T09:25:25.600Z,32.34
2022-08-04T09:27:01.030Z,32.46
2022-08-04T09:28:58.829Z,32.61
2022-08-04T09:30:40.512Z,32.76
2022-08-04T09:32:23.232Z,32.83
2022-08-04T09:34:00.883Z,32.91
2022-08-04T09:35:41.918Z,33.00
2022-08-04T09:37:23.724Z,33.08
2022-08-04T09:39:06.410Z,33.15
2022-08-04T09:40:52.722Z,33.20
2022-08-04T09:42:34.944Z,33.23
2022-08-04T09:44:50.504Z,33.11
2022-08-04T09:46:18.650Z,33.25
2022-08-04T09:47:55.014Z,33.38
2022-08-04T09:49:33.652Z,33.52
2022-08-04T09:51:16.369Z,33.60
2022-08-04T09:52:58.092Z,33.63
2022-08-04T09:54:45.413Z,33.66
2022-08-04T09:56:24.662Z,33.70
2022-08-04T09:58:02.167Z,33.74
2022-08-04T09:59:41.131Z,33.78
2022-08-04T10:01:23.095Z,33.68
2022-08-04T10:02:57.999Z,33.67
2022-08-04T10:04:32.284Z,33.77
2022-08-04T10:06:12.451Z,33.92
2022-08-04T10:08:15.188Z,34.08
2022-08-04T10:09:57.975Z,34.22
2022-08-04T10:11:54.970Z,34.28
2022-08-04T10:13:41.803Z,34.30
2022-08-04T10:15:19.486Z,34.40
2022-08-04T10:17:02.953Z,34.41
2022-08-04T10:18:45.571Z,34.53
2022-08-04T10:20:45.168Z,34.58
2022-08-04T10:22:29.739Z,34.66
2022-08-04T10:24:25.020Z,34.71
2022-08-04T10:26:08.490Z,34.77
2022-08-04T10:27:45.996Z,34.60
2022-08-04T10:29:22.813Z,34.50
2022-08-04T10:30:59.289Z,34.48
2022-08-04T10:32:39.930Z,34.51
2022-08-04T10:34:20.180Z,34.56
2022-08-04T10:35:55.356Z,34.71
2022-08-04T10:37:55.361Z,34.83
2022-08-04T10:39:43.602Z,35.00
2022-08-04T10:41:25.234Z,35.09
2022-08-04T10:43:00.677Z,35.11
2022-08-04T10:44:42.192Z,35.05
2022-08-04T10:46:17.612Z,35.03
2022-08-04T10:48:02.518Z,35.02
2022-08-04T10:49:37.295Z,35.04
2022-08-04T10:51:18.191Z,35.02
2022-08-04T10:52:57.717Z,35.03
2022-08-04T10:54:37.346Z,35.04
2022-08-04T10:56:15.397Z,35.01
2022-08-04T10:57:51.711Z,34.93
2022-08-04T10:59:28.889Z,34.92
2022-08-04T11:01:07.121Z,34.87
2022-08-04T11:02:43.239Z,34.82
2022-08-04T11:04:27.254Z,34.85
2022-08-04T11:06:02.718Z,34.97
2022-08-04T11:07:37.559Z,35.11
2022-08-04T11:09:14.961Z,35.10
2022-08-04T11:10:48.827Z,35.08
2022-08-04T11:12:25.413Z,34.97
2022-08-04T11:14:02.216Z,34.90
2022-08-04T11:15:39.671Z,34.74
2022-08-04T11:17:19.903Z,34.66
2022-08-04T11:19:06.607Z,34.78
2022-08-04T11:20:49.105Z,34.85
2022-08-04T11:22:25.934Z,34.83
2022-08-04T11:24:03.308Z,34.66
2022-08-04T11:25:56.213Z,34.64
2022-08-04T11:27:35.573Z,34.64
2022-08-04T11:29:12.188Z,34.45
2022-08-04T11:30:51.507Z,34.22
2022-08-04T11:32:26.714Z,34.01
2022-08-04T11:34:05.649Z,34.06
2022-08-04T11:35:51.557Z,34.02
2022-08-04T11:37:27.775Z,34.02
2022-08-04T11:39:09.888Z,33.90
2022-08-04T11:41:02.882Z,33.79
2022-08-04T11:42:39.591Z,33.67
2022-08-04T11:44:19.653Z,33.61
2022-08-04T11:45:54.862Z,33.63
2022-08-04T11:47:30.344Z,33.73
2022-08-04T11:49:07.382Z,33.61
2022-08-04T11:50:43.299Z,33.42
2022-08-04T11:52:19.677Z,33.20
2022-08-04T11:53:51.686Z,33.18
2022-08-04T11:55:27.062Z,33.05
2022-08-04T11:56:58.984Z,32.98
2022-08-04T11:58:31.100Z,32.99
2022-08-04T12:00:07.408Z,32.97
2022-08-04T12:02:05.604Z,32.95
2022-08-04T12:03:46.234Z,32.99
2022-08-04T12:05:47.088Z,33.16
2022-08-04T12:07:31.376Z,33.45
2022-08-04T12:09:10.134Z,33.67
2022-08-04T12:10:47.341Z,33.73
2022-08-04T12:12:27.188Z,33.69
2022-08-04T12:14:09.930Z,33.55
2022-08-04T12:15:50.534Z,33.29
2022-08-04T12:17:27.604Z,33.15
2022-08-04T12:19:16.767Z,33.09
2022-08-04T12:20:50.914Z,33.20
2022-08-04T12:22:28.275Z,33.40
2022-08-04T12:24:08.582Z,33.53
2022-08-04T12:25:45.228Z,33.58
2022-08-04T12:27:20.185Z,33.62
2022-08-04T12:29:09.990Z,33.75
2022-08-04T12:30:59.446Z,33.76
2022-08-04T12:32:48.202Z,33.50
2022-08-04T12:34:30.794Z,33.30
2022-08-04T12:36:20.932Z,33.23
2022-08-04T12:38:06.167Z,33.33
2022-08-04T12:40:29.370Z,33.41
2022-08-04T12:41:42.284Z,33.46
2022-08-04T12:43:20.135Z,33.40
2022-08-04T12:44:54.392Z,33.40
2022-08-04T12:46:29.417Z,33.47
2022-08-04T12:48:04.732Z,33.35
2022-08-04T12:49:39.297Z,33.24
2022-08-04T12:52:06.419Z,33.17
2022-08-04T12:53:13.284Z,33.46
2022-08-04T12:55:05.882Z,33.63
2022-08-04T12:56:40.755Z,33.60
2022-08-04T12:58:42.406Z,33.70
2022-08-04T13:00:10.124Z,33.80
2022-08-04T13:02:07.411Z,33.79
2022-08-04T13:03:42.842Z,33.89
2022-08-04T13:05:17.240Z,34.06
2022-08-04T13:06:59.607Z,34.03
2022-08-04T13:08:36.589Z,34.07
2022-08-04T13:10:13.253Z,34.14
2022-08-04T13:11:54.965Z,34.17
2022-08-04T13:13:29.046Z,34.30
2022-08-04T13:15:17.735Z,34.32
2022-08-04T13:16:57.505Z,34.17
2022-08-04T13:18:32.083Z,34.07
2022-08-04T13:20:05.076Z,33.91
2022-08-04T13:21:49.945Z,33.88
2022-08-04T13:24:09.875Z,33.65
2022-08-04T13:26:42.246Z,33.70
2022-08-04T13:27:24.937Z,33.87
2022-08-04T13:29:16.132Z,33.94
2022-08-04T13:30:54.621Z,33.96
2022-08-04T13:32:27.723Z,33.85
2022-08-04T13:34:05.430Z,33.70
2022-08-04T13:35:54.654Z,33.61
2022-08-04T13:37:33.495Z,33.54
2022-08-04T13:39:13.965Z,33.53
2022-08-04T13:40:46.613Z,33.56
2022-08-04T13:42:20.677Z,33.63
2022-08-04T13:44:17.547Z,33.41
2022-08-04T13:45:50.565Z,33.16
2022-08-04T13:47:25.583Z,33.02
2022-08-04T13:49:28.317Z,33.07
2022-08-04T13:50:55.170Z,33.00
2022-08-04T13:52:27.542Z,33.03
2022-08-04T13:54:00.733Z,33.03
2022-08-04T13:55:35.504Z,32.98
2022-08-04T13:57:13.232Z,33.06
2022-08-04T13:58:47.633Z,33.14
2022-08-04T14:00:29.279Z,33.13
2022-08-04T14:02:07.330Z,32.74
2022-08-04T14:03:53.660Z,32.71
2022-08-04T14:05:30.367Z,32.71
2022-08-04T14:07:16.107Z,32.60
2022-08-04T14:09:00.296Z,32.35
2022-08-04T14:10:35.053Z,32.17
2022-08-04T14:12:45.447Z,32.11
2022-08-04T14:14:12.742Z,32.14
2022-08-04T14:16:02.009Z,32.23
2022-08-04T14:17:35.131Z,32.23
2022-08-04T14:19:08.238Z,32.09
2022-08-04T14:20:58.593Z,32.10
2022-08-04T14:22:34.150Z,32.08
2022-08-04T14:24:06.274Z,32.01
2022-08-04T14:25:39.674Z,31.94
2022-08-04T14:27:11.582Z,31.88
2022-08-04T14:29:25.901Z,31.78
2022-08-04T14:30:37.885Z,31.53
2022-08-04T14:32:22.985Z,31.51
2022-08-04T14:34:03.544Z,31.54
2022-08-04T14:35:50.248Z,31.54
2022-08-04T14:37:23.646Z,31.57
2022-08-04T14:38:58.518Z,31.49
2022-08-04T14:40:37.680Z,31.51
2022-08-04T14:42:11.176Z,31.59
2022-08-04T14:43:47.980Z,31.46
2022-08-04T14:45:27.661Z,31.31
2022-08-04T14:47:00.653Z,31.22
2022-08-04T14:48:32.540Z,31.32
2022-08-04T14:50:05.134Z,31.44
2022-08-04T14:51:40.358Z,31.47
2022-08-04T14:53:16.006Z,31.35
2022-08-04T14:54:49.450Z,31.18
2022-08-04T14:56:45.017Z,31.09
2022-08-04T14:58:33.912Z,30.96
2022-08-04T15:00:11.837Z,31.02
2022-08-04T15:01:46.507Z,31.08
2022-08-04T15:03:33.902Z,31.07
2022-08-04T15:06:02.323Z,31.14
2022-08-04T15:07:00.507Z,31.26
2022-08-04T15:08:32.589Z,31.20
2022-08-04T15:10:05.195Z,31.33
2022-08-04T15:11:43.256Z,31.34
2022-08-04T15:13:16.218Z,31.32
2022-08-04T15:14:49.872Z,31.17
2022-08-04T15:16:23.138Z,30.97
2022-08-04T15:17:55.634Z,30.87
2022-08-04T15:19:28.103Z,30.79
2022-08-04T15:21:02.924Z,30.69
2022-08-04T15:22:36.625Z,30.83
2022-08-04T15:24:10.381Z,30.80
2022-08-04T15:25:47.162Z,30.80
2022-08-04T15:27:21.455Z,30.84
2022-08-04T15:28:58.576Z,30.78
2022-08-04T15:30:33.241Z,30.76
2022-08-04T15:32:09.417Z,30.73
2022-08-04T15:33:41.973Z,30.79
2022-08-04T15:35:23.275Z,30.91
2022-08-04T15:37:07.412Z,30.99
2022-08-04T15:38:44.840Z,31.07
2022-08-04T15:40:27.172Z,31.08
2022-08-04T15:42:18.843Z,30.87
2022-08-04T15:44:12.996Z,30.62
2022-08-04T15:46:37.443Z,30.57
2022-08-04T15:47:49.919Z,30.56
2022-08-04T15:49:25.835Z,30.57
2022-08-04T15:51:06.986Z,30.72
2022-08-04T15:53:10.040Z,30.91
2022-08-04T15:54:52.070Z,31.08
2022-08-04T15:56:48.457Z,31.16
2022-08-04T15:58:49.815Z,31.25
2022-08-04T16:00:21.553Z,31.30
2022-08-04T16:02:35.421Z,31.34
2022-08-04T16:04:24.091Z,31.32
2022-08-04T16:05:56.042Z,31.25
2022-08-04T16:07:57.788Z,31.36
2022-08-04T16:09:45.147Z,31.36
2022-08-04T16:11:40.581Z,31.37
2022-08-04T16:13:14.549Z,31.35
2022-08-04T16:14:47.630Z,31.27
2022-08-04T16:16:27.428Z,31.26
2022-08-04T16:18:03.610Z,31.35
2022-08-04T16:19:51.714Z,31.42
2022-08-04T16:21:27.499Z,31.43
2022-08-04T16:23:13.475Z,31.37
2022-08-04T16:24:52.278Z,31.38
2022-08-04T16:26:46.189Z,31.38
2022-08-04T16:28:40.901Z,31.32
2022-08-04T16:30:14.953Z,31.22
2022-08-04T16:32:22.416Z,31.22
2022-08-04T16:34:45.648Z,31.29
2022-08-04T16:35:52.418Z,31.31
2022-08-04T16:37:42.975Z,30.98
2022-08-04T16:39:19.170Z,30.68
2022-08-04T16:40:55.170Z,30.55
2022-08-04T16:42:32.343Z,30.42
2022-08-04T16:44:51.797Z,30.45
2022-08-04T16:46:41.137Z,30.12
2022-08-04T16:48:37.626Z,30.13
2022-08-04T16:50:11.178Z,30.08
2022-08-04T16:51:42.929Z,30.18
2022-08-04T16:53:53.898Z,30.09
2022-08-04T16:55:11.926Z,30.22
2022-08-04T16:56:43.997Z,30.34
2022-08-04T16:58:24.190Z,30.44
2022-08-04T16:59:55.943Z,30.54
2022-08-04T17:01:33.678Z,30.43
2022-08-04T17:03:10.125Z,30.15
2022-08-04T17:04:42.079Z,30.12
2022-08-04T17:06:15.611Z,30.09
2022-08-04T17:08:07.064Z,30.20
2022-08-04T17:09:49.949Z,30.23
2022-08-04T17:11:32.598Z,30.15
2022-08-04T17:14:02.636Z,30.09
2022-08-04T17:15:21.893Z,30.03
2022-08-04T17:16:58.968Z,29.97
2022-08-04T17:18:34.473Z,30.04
2022-08-04T17:20:07.617Z,29.93
2022-08-04T17:21:40.905Z,29.74
2022-08-04T17:24:13.225Z,29.75
2022-08-04T17:25:19.566Z,29.63
2022-08-04T17:28:20.052Z,29.49
2022-08-04T17:29:08.161Z,29.55
2022-08-04T17:30:47.870Z,29.65
2022-08-04T17:32:24.344Z,29.72
2022-08-04T17:33:57.823Z,29.78
2022-08-04T17:35:38.624Z,29.83
2022-08-04T17:37:38.045Z,29.83
2022-08-04T17:39:16.751Z,29.74
2022-08-04T17:40:57.125Z,29.73
2022-08-04T17:42:29.699Z,29.73
2022-08-04T17:44:06.614Z,29.74
2022-08-04T17:45:52.979Z,29.72
2022-08-04T17:47:25.861Z,29.71
2022-08-04T17:49:12.172Z,29.67
2022-08-04T17:50:49.000Z,29.63
2022-08-04T17:52:41.390Z,29.40
2022-08-04T17:54:15.948Z,29.26
2022-08-04T17:56:06.544Z,29.13
2022-08-04T17:57:38.595Z,28.95
2022-08-04T17:59:56.568Z,28.96
2022-08-04T18:01:24.080Z,29.11
2022-08-04T18:02:56.478Z,29.23
2022-08-04T18:05:05.933Z,29.34
2022-08-04T18:06:49.929Z,29.39
2022-08-04T18:08:39.428Z,29.36
2022-08-04T18:10:30.722Z,29.34
2022-08-04T18:14:01.314Z,29.40
2022-08-04T18:15:44.045Z,29.42
2022-08-04T18:18:21.990Z,29.42
2022-08-04T18:19:26.056Z,29.42
2022-08-04T18:21:05.079Z,29.43
2022-08-04T18:22:37.576Z,29.42
2022-08-04T18:24:12.534Z,29.36
2022-08-04T18:25:51.403Z,29.36
2022-08-04T18:27:26.159Z,29.37
2022-08-04T18:29:02.082Z,29.39
2022-08-04T18:30:53.516Z,29.36
2022-08-04T18:32:33.436Z,29.29
2022-08-04T18:34:10.697Z,29.29
2022-08-04T18:36:32.614Z,29.26
2022-08-04T18:38:05.983Z,29.32
2022-08-04T18:40:21.353Z,29.34
2022-08-04T18:41:24.188Z,29.35
2022-08-04T18:42:59.913Z,29.33
2022-08-04T18:44:52.813Z,29.28
2022-08-04T18:46:27.062Z,29.29
2022-08-04T18:47:59.657Z,29.30
2022-08-04T18:50:58.687Z,29.27
2022-08-04T18:51:24.970Z,29.28
2022-08-04T18:53:02.556Z,29.25
2022-08-04T18:54:37.074Z,29.20
2022-08-04T18:56:19.808Z,29.21
2022-08-04T18:58:07.853Z,29.16
2022-08-04T18:59:46.588Z,29.10
2022-08-04T19:01:18.382Z,29.05
2022-08-04T19:02:50.306Z,28.98
2022-08-04T19:04:33.337Z,28.95
2022-08-04T19:06:14.237Z,28.89
2022-08-04T19:08:01.442Z,28.88
2022-08-04T19:09:51.213Z,28.87
2022-08-04T19:11:54.502Z,28.68
2022-08-04T19:13:25.122Z,28.52
2022-08-04T19:15:10.372Z,28.43
2022-08-04T19:16:45.945Z,28.32
2022-08-04T19:18:18.995Z,28.27
2022-08-04T19:19:50.924Z,28.19
2022-08-04T19:22:00.538Z,28.16
2022-08-04T19:24:11.270Z,28.15
2022-08-04T19:25:07.084Z,28.09
2022-08-04T19:26:42.392Z,28.03
2022-08-04T19:28:20.972Z,27.95
2022-08-04T19:29:53.523Z,27.86
2022-08-04T19:31:39.999Z,27.83
2022-08-04T19:33:12.727Z,27.69
2022-08-04T19:34:45.799Z,27.62
2022-08-04T19:36:18.761Z,27.59
2022-08-04T19:39:42.795Z,27.48
2022-08-04T19:41:15.125Z,27.44
2022-08-04T19:42:53.803Z,27.43
2022-08-04T19:44:32.510Z,27.45
2022-08-04T19:46:05.833Z,27.39
2022-08-04T19:47:37.971Z,27.37
2022-08-04T19:50:05.406Z,27.34
2022-08-04T19:51:21.910Z,27.35
2022-08-04T19:52:54.515Z,27.37
2022-08-04T19:54:27.433Z,27.32
2022-08-04T19:55:59.476Z,27.22
2022-08-04T19:57:32.376Z,27.17
2022-08-04T19:59:09.325Z,27.10
2022-08-04T20:00:44.601Z,27.11
2022-08-04T20:02:23.202Z,27.13
2022-08-04T20:04:09.461Z,27.09
2022-08-04T20:05:53.349Z,27.04
2022-08-04T20:07:27.415Z,26.97
2022-08-04T20:09:00.658Z,26.88
2022-08-04T20:10:32.754Z,26.86
2022-08-04T20:12:05.556Z,26.83
2022-08-04T20:13:38.825Z,26.89
2022-08-04T20:15:15.051Z,26.87
2022-08-04T20:16:47.326Z,26.87
2022-08-04T20:18:36.827Z,26.84
2022-08-04T20:20:14.930Z,26.75
2022-08-04T20:21:55.219Z,26.72
2022-08-04T20:23:28.669Z,26.69
2022-08-04T20:25:36.749Z,26.66
2022-08-04T20:27:14.680Z,26.59
2022-08-04T20:29:02.992Z,26.58
2022-08-04T20:30:37.485Z,26.61
2022-08-04T20:32:09.799Z,26.63
2022-08-04T20:33:41.652Z,26.59
2022-08-04T20:35:25.870Z,26.65
2022-08-04T20:36:58.761Z,26.60
2022-08-04T20:38:33.439Z,26.58
2022-08-04T20:40:06.980Z,26.57
2022-08-04T20:41:38.702Z,26.54
2022-08-04T20:43:16.802Z,26.54
2022-08-04T20:44:52.275Z,26.51
2022-08-04T20:46:29.483Z,26.54
2022-08-04T20:48:01.582Z,26.48
2022-08-04T20:49:35.225Z,26.52
2022-08-04T20:51:09.646Z,26.51
2022-08-04T20:52:43.562Z,26.54
2022-08-04T20:54:16.558Z,26.55
2022-08-04T20:55:55.917Z,26.54
2022-08-04T20:57:48.132Z,26.57
2022-08-04T20:59:22.002Z,26.55
2022-08-04T21:00:57.516Z,26.56
2022-08-04T21:02:30.606Z,26.58
2022-08-04T21:04:27.202Z,26.57
2022-08-04T21:06:05.292Z,26.54
2022-08-04T21:07:43.877Z,26.40
2022-08-04T21:09:37.330Z,26.20
2022-08-04T21:11:11.607Z,25.92
2022-08-04T21:12:49.674Z,25.89
2022-08-04T21:14:21.618Z,25.85
2022-08-04T21:16:00.743Z,25.80
2022-08-04T21:17:58.990Z,25.64
2022-08-04T21:19:31.065Z,25.55
2022-08-04T21:21:03.447Z,25.58
2022-08-04T21:22:35.239Z,25.57
2022-08-04T21:24:10.183Z,25.60
2022-08-04T21:25:50.880Z,25.68
2022-08-04T21:27:22.988Z,25.76
2022-08-04T21:28:54.856Z,25.85
2022-08-04T21:30:26.840Z,25.93
2022-08-04T21:31:58.763Z,25.90
2022-08-04T21:33:51.199Z,25.86
2022-08-04T21:35:30.826Z,25.81
2022-08-04T21:37:14.698Z,25.82
2022-08-04T21:38:51.682Z,25.74
2022-08-04T21:40:34.419Z,25.75
2022-08-04T21:42:29.363Z,25.73
2022-08-04T21:44:02.147Z,25.66
2022-08-04T21:45:36.196Z,25.63
2022-08-04T21:47:23.137Z,25.70
2022-08-04T21:48:57.624Z,25.69
2022-08-04T21:50:30.737Z,25.66
2022-08-04T21:52:07.452Z,25.67
2022-08-04T21:53:39.392Z,25.76